sensor_id;sensor_type;location;lat;lon;timestamp;pressure;altitude;pressure_sealevel;temperature;humidity
30967;BME280;17649;51.836;8.330;2023-06-04T00:01:41;101537.00;;;11.44;100.00
30967;BME280;17649;51.836;8.330;2023-06-04T00:04:41;101536.06;;;11.45;100.00
30967;BME280;17649;51.836;8.330;2023-06-04T00:07:42;101535.53;;;11.39;100.00
30967;BME280;17649;51.836;8.330;2023-06-04T00:10:42;101529.78;;;11.32;100.00
30967;BME280;17649;51.836;8.330;2023-06-04T00:13:42;101532.16;;;11.37;100.00
30967;BME280;17649;51.836;8.330;2023-06-04T00:16:42;101529.25;;;11.24;100.00
30967;BME280;17649;51.836;8.330;2023-06-04T00:19:43;101526.53;;;11.27;100.00
30967;BME280;17649;51.836;8.330;2023-06-04T00:22:43;101523.09;;;11.26;100.00
30967;BME280;17649;51.836;8.330;2023-06-04T00:25:43;101524.16;;;11.22;100.00
30967;BME280;17649;51.836;8.330;2023-06-04T00:28:44;101525.25;;;11.17;100.00
30967;BME280;17649;51.836;8.330;2023-06-04T00:31:44;101521.75;;;11.18;100.00
30967;BME280;17649;51.836;8.330;2023-06-04T00:34:50;101524.47;;;11.15;100.00
30967;BME280;17649;51.836;8.330;2023-06-04T00:37:50;101519.25;;;11.16;100.00
30967;BME280;17649;51.836;8.330;2023-06-04T00:40:50;101522.84;;;11.12;100.00
30967;BME280;17649;51.836;8.330;2023-06-04T00:43:53;101519.00;;;11.02;100.00
30967;BME280;17649;51.836;8.330;2023-06-04T00:46:58;101518.19;;;11.00;100.00
30967;BME280;17649;51.836;8.330;2023-06-04T00:49:58;101524.66;;;11.10;100.00
30967;BME280;17649;51.836;8.330;2023-06-04T00:52:58;101519.03;;;11.00;100.00
30967;BME280;17649;51.836;8.330;2023-06-04T00:55:58;101514.59;;;11.04;100.00
30967;BME280;17649;51.836;8.330;2023-06-04T00:58:58;101521.75;;;10.97;100.00
30967;BME280;17649;51.836;8.330;2023-06-04T01:05:08;101515.03;;;10.93;100.00
30967;BME280;17649;51.836;8.330;2023-06-04T01:08:11;101504.28;;;11.02;100.00
30967;BME280;17649;51.836;8.330;2023-06-04T01:11:11;101514.69;;;11.01;100.00
30967;BME280;17649;51.836;8.330;2023-06-04T01:14:12;101511.25;;;11.00;100.00
30967;BME280;17649;51.836;8.330;2023-06-04T01:20:27;101511.53;;;10.74;100.00
30967;BME280;17649;51.836;8.330;2023-06-04T01:26:35;101517.69;;;10.71;100.00
30967;BME280;17649;51.836;8.330;2023-06-04T01:29:37;101514.09;;;10.54;100.00
30967;BME280;17649;51.836;8.330;2023-06-04T01:32:38;101506.34;;;10.32;100.00
30967;BME280;17649;51.836;8.330;2023-06-04T01:35:38;101505.19;;;10.17;100.00
30967;BME280;17649;51.836;8.330;2023-06-04T01:38:38;101511.53;;;10.32;100.00
30967;BME280;17649;51.836;8.330;2023-06-04T01:41:38;101501.13;;;10.10;100.00
30967;BME280;17649;51.836;8.330;2023-06-04T01:44:38;101512.75;;;10.00;100.00
30967;BME280;17649;51.836;8.330;2023-06-04T01:47:39;101513.88;;;9.93;100.00
30967;BME280;17649;51.836;8.330;2023-06-04T01:50:39;101515.59;;;9.70;100.00
30967;BME280;17649;51.836;8.330;2023-06-04T01:53:39;101518.06;;;9.73;100.00
30967;BME280;17649;51.836;8.330;2023-06-04T01:56:40;101530.59;;;9.61;100.00
30967;BME280;17649;51.836;8.330;2023-06-04T01:59:40;101532.00;;;9.69;100.00
30967;BME280;17649;51.836;8.330;2023-06-04T02:02:43;101520.25;;;9.61;100.00
30967;BME280;17649;51.836;8.330;2023-06-04T02:05:55;101525.31;;;9.64;100.00
30967;BME280;17649;51.836;8.330;2023-06-04T02:08:56;101527.53;;;9.49;100.00
30967;BME280;17649;51.836;8.330;2023-06-04T02:11:56;101533.50;;;9.51;100.00
30967;BME280;17649;51.836;8.330;2023-06-04T02:14:56;101529.47;;;9.44;100.00
30967;BME280;17649;51.836;8.330;2023-06-04T02:17:57;101527.13;;;9.37;100.00
30967;BME280;17649;51.836;8.330;2023-06-04T02:20:58;101533.34;;;9.56;100.00
30967;BME280;17649;51.836;8.330;2023-06-04T02:23:59;101533.34;;;9.56;100.00
30967;BME280;17649;51.836;8.330;2023-06-04T02:26:59;101536.91;;;9.52;100.00
30967;BME280;17649;51.836;8.330;2023-06-04T02:29:59;101537.03;;;9.49;100.00
30967;BME280;17649;51.836;8.330;2023-06-04T02:32:59;101542.09;;;9.52;100.00
30967;BME280;17649;51.836;8.330;2023-06-04T02:36:00;101541.41;;;9.47;100.00
30967;BME280;17649;51.836;8.330;2023-06-04T02:39:02;101540.53;;;9.48;100.00
30967;BME280;17649;51.836;8.330;2023-06-04T02:42:02;101548.50;;;9.42;100.00
30967;BME280;17649;51.836;8.330;2023-06-04T02:45:03;101545.22;;;9.37;100.00
30967;BME280;17649;51.836;8.330;2023-06-04T02:48:03;101541.13;;;9.31;100.00
30967;BME280;17649;51.836;8.330;2023-06-04T02:51:03;101548.13;;;9.27;100.00
30967;BME280;17649;51.836;8.330;2023-06-04T02:54:04;101549.94;;;9.25;100.00
30967;BME280;17649;51.836;8.330;2023-06-04T02:57:05;101547.50;;;9.21;100.00
30967;BME280;17649;51.836;8.330;2023-06-04T03:00:06;101553.06;;;9.10;100.00
30967;BME280;17649;51.836;8.330;2023-06-04T03:03:12;101549.63;;;9.10;100.00
30967;BME280;17649;51.836;8.330;2023-06-04T03:06:12;101554.72;;;9.11;100.00
30967;BME280;17649;51.836;8.330;2023-06-04T03:09:14;101548.66;;;9.12;100.00
30967;BME280;17649;51.836;8.330;2023-06-04T03:12:14;101551.13;;;9.15;100.00
30967;BME280;17649;51.836;8.330;2023-06-04T03:15:14;101549.56;;;9.11;100.00
30967;BME280;17649;51.836;8.330;2023-06-04T03:18:15;101549.28;;;9.19;100.00
30967;BME280;17649;51.836;8.330;2023-06-04T03:21:15;101545.13;;;9.15;100.00
30967;BME280;17649;51.836;8.330;2023-06-04T03:24:15;101543.50;;;9.12;100.00
30967;BME280;17649;51.836;8.330;2023-06-04T03:27:15;101545.31;;;9.10;100.00
30967;BME280;17649;51.836;8.330;2023-06-04T03:30:16;101550.47;;;9.10;100.00
30967;BME280;17649;51.836;8.330;2023-06-04T03:33:16;101552.28;;;9.07;100.00
30967;BME280;17649;51.836;8.330;2023-06-04T03:36:16;101547.88;;;9.10;100.00
30967;BME280;17649;51.836;8.330;2023-06-04T03:39:17;101553.84;;;9.12;100.00
30967;BME280;17649;51.836;8.330;2023-06-04T03:42:17;101554.63;;;9.14;100.00
30967;BME280;17649;51.836;8.330;2023-06-04T03:45:18;101552.03;;;9.14;100.00
30967;BME280;17649;51.836;8.330;2023-06-04T03:48:18;101552.72;;;9.19;100.00
30967;BME280;17649;51.836;8.330;2023-06-04T03:51:19;101555.00;;;9.29;100.00
30967;BME280;17649;51.836;8.330;2023-06-04T03:54:19;101558.25;;;9.34;100.00
30967;BME280;17649;51.836;8.330;2023-06-04T03:57:19;101554.56;;;9.41;100.00
30967;BME280;17649;51.836;8.330;2023-06-04T04:00:20;101556.06;;;9.46;100.00
30967;BME280;17649;51.836;8.330;2023-06-04T04:03:21;101560.16;;;9.53;100.00
30967;BME280;17649;51.836;8.330;2023-06-04T04:06:21;101558.28;;;9.57;100.00
30967;BME280;17649;51.836;8.330;2023-06-04T04:09:22;101557.28;;;9.61;100.00
30967;BME280;17649;51.836;8.330;2023-06-04T04:12:22;101560.50;;;9.68;100.00
30967;BME280;17649;51.836;8.330;2023-06-04T04:15:22;101562.66;;;9.78;100.00
30967;BME280;17649;51.836;8.330;2023-06-04T04:18:22;101559.63;;;9.91;100.00
30967;BME280;17649;51.836;8.330;2023-06-04T04:21:23;101559.28;;;10.00;100.00
30967;BME280;17649;51.836;8.330;2023-06-04T04:24:24;101555.44;;;10.10;100.00
30967;BME280;17649;51.836;8.330;2023-06-04T04:27:25;101555.22;;;10.16;100.00
30967;BME280;17649;51.836;8.330;2023-06-04T04:30:26;101559.91;;;10.30;100.00
30967;BME280;17649;51.836;8.330;2023-06-04T04:33:31;101546.44;;;10.43;100.00
30967;BME280;17649;51.836;8.330;2023-06-04T04:36:36;101561.44;;;10.56;100.00
30967;BME280;17649;51.836;8.330;2023-06-04T04:39:40;101563.59;;;10.66;100.00
30967;BME280;17649;51.836;8.330;2023-06-04T04:42:41;101567.50;;;10.77;100.00
30967;BME280;17649;51.836;8.330;2023-06-04T04:45:41;101557.50;;;10.89;100.00
30967;BME280;17649;51.836;8.330;2023-06-04T04:48:42;101561.91;;;11.08;100.00
30967;BME280;17649;51.836;8.330;2023-06-04T04:51:42;101559.09;;;11.12;100.00
30967;BME280;17649;51.836;8.330;2023-06-04T04:54:44;101555.88;;;11.27;100.00
30967;BME280;17649;51.836;8.330;2023-06-04T04:57:44;101562.06;;;11.44;100.00
30967;BME280;17649;51.836;8.330;2023-06-04T05:00:45;101561.59;;;11.54;100.00
30967;BME280;17649;51.836;8.330;2023-06-04T05:03:48;101556.03;;;11.63;100.00
30967;BME280;17649;51.836;8.330;2023-06-04T05:06:48;101557.28;;;11.74;100.00
30967;BME280;17649;51.836;8.330;2023-06-04T05:09:48;101548.06;;;11.87;100.00
30967;BME280;17649;51.836;8.330;2023-06-04T05:12:52;101542.72;;;11.90;100.00
30967;BME280;17649;51.836;8.330;2023-06-04T05:15:52;101547.34;;;12.02;100.00
30967;BME280;17649;51.836;8.330;2023-06-04T05:18:53;101542.78;;;12.26;100.00
30967;BME280;17649;51.836;8.330;2023-06-04T05:21:56;101539.13;;;12.30;100.00
30967;BME280;17649;51.836;8.330;2023-06-04T05:24:57;101552.00;;;12.50;100.00
30967;BME280;17649;51.836;8.330;2023-06-04T05:27:59;101548.72;;;12.64;100.00
30967;BME280;17649;51.836;8.330;2023-06-04T05:30:59;101543.53;;;12.64;100.00
30967;BME280;17649;51.836;8.330;2023-06-04T05:34:00;101539.47;;;12.76;100.00
30967;BME280;17649;51.836;8.330;2023-06-04T05:37:06;101547.59;;;12.87;100.00
30967;BME280;17649;51.836;8.330;2023-06-04T05:40:08;101544.91;;;12.89;100.00
30967;BME280;17649;51.836;8.330;2023-06-04T05:43:12;101537.34;;;13.19;100.00
30967;BME280;17649;51.836;8.330;2023-06-04T05:46:13;101544.44;;;13.32;100.00
30967;BME280;17649;51.836;8.330;2023-06-04T05:49:13;101552.19;;;13.50;100.00
30967;BME280;17649;51.836;8.330;2023-06-04T05:52:13;101546.19;;;13.65;100.00
30967;BME280;17649;51.836;8.330;2023-06-04T05:55:14;101550.00;;;13.75;100.00
30967;BME280;17649;51.836;8.330;2023-06-04T05:58:14;101544.03;;;13.89;100.00
30967;BME280;17649;51.836;8.330;2023-06-04T06:01:14;101538.31;;;13.98;100.00
30967;BME280;17649;51.836;8.330;2023-06-04T06:04:15;101548.41;;;14.04;100.00
30967;BME280;17649;51.836;8.330;2023-06-04T06:07:15;101556.13;;;14.21;100.00
30967;BME280;17649;51.836;8.330;2023-06-04T06:10:16;101565.69;;;14.21;100.00
30967;BME280;17649;51.836;8.330;2023-06-04T06:13:16;101564.50;;;14.26;100.00
30967;BME280;17649;51.836;8.330;2023-06-04T06:16:16;101556.88;;;14.55;100.00
30967;BME280;17649;51.836;8.330;2023-06-04T06:19:17;101556.91;;;14.69;100.00
30967;BME280;17649;51.836;8.330;2023-06-04T06:22:17;101560.78;;;14.78;100.00
30967;BME280;17649;51.836;8.330;2023-06-04T06:25:20;101566.38;;;14.86;100.00
30967;BME280;17649;51.836;8.330;2023-06-04T06:28:20;101562.13;;;14.99;100.00
30967;BME280;17649;51.836;8.330;2023-06-04T06:31:21;101564.41;;;15.19;100.00
30967;BME280;17649;51.836;8.330;2023-06-04T06:34:21;101565.06;;;15.23;100.00
30967;BME280;17649;51.836;8.330;2023-06-04T06:37:21;101566.47;;;15.43;100.00
30967;BME280;17649;51.836;8.330;2023-06-04T06:40:22;101565.91;;;15.52;100.00
30967;BME280;17649;51.836;8.330;2023-06-04T06:43:22;101567.41;;;15.42;100.00
30967;BME280;17649;51.836;8.330;2023-06-04T06:46:22;101566.41;;;15.73;100.00
30967;BME280;17649;51.836;8.330;2023-06-04T06:49:23;101577.66;;;15.88;100.00
30967;BME280;17649;51.836;8.330;2023-06-04T06:52:23;101576.81;;;16.01;100.00
30967;BME280;17649;51.836;8.330;2023-06-04T06:55:23;101579.28;;;16.17;100.00
30967;BME280;17649;51.836;8.330;2023-06-04T06:58:23;101577.31;;;16.21;100.00
30967;BME280;17649;51.836;8.330;2023-06-04T07:01:24;101586.50;;;16.40;100.00
30967;BME280;17649;51.836;8.330;2023-06-04T07:04:24;101590.94;;;16.53;100.00
30967;BME280;17649;51.836;8.330;2023-06-04T07:07:25;101581.34;;;16.66;100.00
30967;BME280;17649;51.836;8.330;2023-06-04T07:10:26;101584.75;;;16.81;100.00
30967;BME280;17649;51.836;8.330;2023-06-04T07:13:27;101579.97;;;16.87;100.00
30967;BME280;17649;51.836;8.330;2023-06-04T07:16:28;101583.56;;;16.99;100.00
30967;BME280;17649;51.836;8.330;2023-06-04T07:19:28;101570.59;;;17.10;100.00
30967;BME280;17649;51.836;8.330;2023-06-04T07:22:28;101585.56;;;17.21;100.00
30967;BME280;17649;51.836;8.330;2023-06-04T07:25:29;101586.94;;;17.26;100.00
30967;BME280;17649;51.836;8.330;2023-06-04T07:28:29;101586.84;;;17.28;100.00
30967;BME280;17649;51.836;8.330;2023-06-04T07:31:29;101593.31;;;17.35;100.00
30967;BME280;17649;51.836;8.330;2023-06-04T07:34:32;101590.81;;;17.46;100.00
30967;BME280;17649;51.836;8.330;2023-06-04T07:37:33;101592.59;;;17.58;100.00
30967;BME280;17649;51.836;8.330;2023-06-04T07:40:33;101584.00;;;17.69;100.00
30967;BME280;17649;51.836;8.330;2023-06-04T07:43:34;101589.44;;;17.79;100.00
30967;BME280;17649;51.836;8.330;2023-06-04T07:46:35;101591.28;;;18.02;100.00
30967;BME280;17649;51.836;8.330;2023-06-04T07:49:35;101586.94;;;18.14;99.97
30967;BME280;17649;51.836;8.330;2023-06-04T07:52:35;101596.22;;;18.31;100.00
30967;BME280;17649;51.836;8.330;2023-06-04T07:55:36;101592.09;;;18.39;88.25
30967;BME280;17649;51.836;8.330;2023-06-04T07:58:36;101584.81;;;18.32;93.57
30967;BME280;17649;51.836;8.330;2023-06-04T08:01:36;101590.91;;;18.43;86.01
30967;BME280;17649;51.836;8.330;2023-06-04T08:04:36;101596.34;;;18.53;97.35
30967;BME280;17649;51.836;8.330;2023-06-04T08:07:36;101577.72;;;18.69;100.00
30967;BME280;17649;51.836;8.330;2023-06-04T08:10:38;101596.47;;;18.75;100.00
30967;BME280;17649;51.836;8.330;2023-06-04T08:13:39;101582.91;;;18.82;100.00
30967;BME280;17649;51.836;8.330;2023-06-04T08:16:39;101584.50;;;18.95;100.00
30967;BME280;17649;51.836;8.330;2023-06-04T08:19:40;101578.06;;;18.99;95.40
30967;BME280;17649;51.836;8.330;2023-06-04T08:22:40;101586.44;;;19.04;88.99
30967;BME280;17649;51.836;8.330;2023-06-04T08:25:41;101576.53;;;19.19;100.00
30967;BME280;17649;51.836;8.330;2023-06-04T08:28:41;101580.88;;;19.43;91.60
30967;BME280;17649;51.836;8.330;2023-06-04T08:31:41;101577.34;;;19.55;97.87
30967;BME280;17649;51.836;8.330;2023-06-04T08:34:42;101583.88;;;19.60;100.00
30967;BME280;17649;51.836;8.330;2023-06-04T08:37:42;101580.44;;;19.71;73.73
30967;BME280;17649;51.836;8.330;2023-06-04T08:40:42;101583.06;;;19.71;72.09
30967;BME280;17649;51.836;8.330;2023-06-04T08:43:43;101589.59;;;19.88;70.70
30967;BME280;17649;51.836;8.330;2023-06-04T08:46:44;101580.38;;;20.05;67.93
30967;BME280;17649;51.836;8.330;2023-06-04T08:49:44;101585.75;;;20.14;65.60
30967;BME280;17649;51.836;8.330;2023-06-04T08:52:56;101585.28;;;20.09;62.83
30967;BME280;17649;51.836;8.330;2023-06-04T08:55:57;101586.84;;;20.01;59.17
30967;BME280;17649;51.836;8.330;2023-06-04T08:59:07;101590.84;;;20.27;73.19
30967;BME280;17649;51.836;8.330;2023-06-04T09:02:07;101581.75;;;20.42;60.15
30967;BME280;17649;51.836;8.330;2023-06-04T09:05:08;101583.41;;;20.54;61.14
30967;BME280;17649;51.836;8.330;2023-06-04T09:08:11;101581.19;;;20.71;56.44
30967;BME280;17649;51.836;8.330;2023-06-04T09:11:13;101583.41;;;20.75;63.03
30967;BME280;17649;51.836;8.330;2023-06-04T09:14:15;101588.28;;;20.80;54.75
30967;BME280;17649;51.836;8.330;2023-06-04T09:17:22;101593.31;;;20.83;51.17
30967;BME280;17649;51.836;8.330;2023-06-04T09:20:23;101587.53;;;20.89;48.94
30967;BME280;17649;51.836;8.330;2023-06-04T09:23:24;101575.38;;;20.98;50.30
30967;BME280;17649;51.836;8.330;2023-06-04T09:26:24;101586.19;;;20.95;59.39
30967;BME280;17649;51.836;8.330;2023-06-04T09:29:26;101577.19;;;20.97;60.61
30967;BME280;17649;51.836;8.330;2023-06-04T09:32:29;101581.06;;;21.14;57.87
30967;BME280;17649;51.836;8.330;2023-06-04T09:35:30;101574.13;;;21.34;54.16
30967;BME280;17649;51.836;8.330;2023-06-04T09:38:37;101586.25;;;21.46;64.27
30967;BME280;17649;51.836;8.330;2023-06-04T09:41:40;101574.53;;;21.29;49.92
30967;BME280;17649;51.836;8.330;2023-06-04T09:44:46;101582.19;;;21.42;57.67
30967;BME280;17649;51.836;8.330;2023-06-04T09:47:46;101574.75;;;21.26;52.64
30967;BME280;17649;51.836;8.330;2023-06-04T09:50:48;101576.66;;;21.24;50.44
30967;BME280;17649;51.836;8.330;2023-06-04T09:54:01;101570.56;;;21.24;46.42
30967;BME280;17649;51.836;8.330;2023-06-04T09:57:02;101569.13;;;21.31;50.74
30967;BME280;17649;51.836;8.330;2023-06-04T10:00:04;101575.13;;;21.42;53.92
30967;BME280;17649;51.836;8.330;2023-06-04T10:03:11;101574.44;;;21.81;56.51
30967;BME280;17649;51.836;8.330;2023-06-04T10:06:15;101565.94;;;21.67;51.54
30967;BME280;17649;51.836;8.330;2023-06-04T10:09:18;101568.44;;;21.69;54.45
30967;BME280;17649;51.836;8.330;2023-06-04T10:12:26;101569.19;;;21.81;50.13
30967;BME280;17649;51.836;8.330;2023-06-04T10:15:29;101575.38;;;22.10;51.94
30967;BME280;17649;51.836;8.330;2023-06-04T10:18:30;101571.25;;;22.37;48.47
30967;BME280;17649;51.836;8.330;2023-06-04T10:21:31;101557.94;;;22.67;48.80
30967;BME280;17649;51.836;8.330;2023-06-04T10:24:34;101556.25;;;22.56;46.33
30967;BME280;17649;51.836;8.330;2023-06-04T10:27:35;101560.41;;;22.30;44.93
30967;BME280;17649;51.836;8.330;2023-06-04T10:30:36;101560.84;;;22.35;42.41
30967;BME280;17649;51.836;8.330;2023-06-04T10:33:37;101562.09;;;22.60;48.60
30967;BME280;17649;51.836;8.330;2023-06-04T10:36:46;101554.88;;;22.33;42.34
30967;BME280;17649;51.836;8.330;2023-06-04T10:39:50;101551.00;;;22.66;50.98
30967;BME280;17649;51.836;8.330;2023-06-04T10:42:53;101554.00;;;23.10;47.10
30967;BME280;17649;51.836;8.330;2023-06-04T10:45:54;101553.91;;;23.39;49.75
30967;BME280;17649;51.836;8.330;2023-06-04T10:48:54;101550.28;;;23.40;46.82
30967;BME280;17649;51.836;8.330;2023-06-04T10:51:55;101549.16;;;23.42;45.71
30967;BME280;17649;51.836;8.330;2023-06-04T10:55:02;101545.84;;;23.40;46.68
30967;BME280;17649;51.836;8.330;2023-06-04T10:58:03;101543.38;;;23.29;44.00
30967;BME280;17649;51.836;8.330;2023-06-04T11:01:03;101552.59;;;23.53;47.75
30967;BME280;17649;51.836;8.330;2023-06-04T11:04:04;101550.59;;;23.92;43.19
30967;BME280;17649;51.836;8.330;2023-06-04T11:07:05;101551.75;;;24.07;44.31
30967;BME280;17649;51.836;8.330;2023-06-04T11:10:09;101552.63;;;24.43;45.28
30967;BME280;17649;51.836;8.330;2023-06-04T11:13:10;101547.31;;;24.61;41.17
30967;BME280;17649;51.836;8.330;2023-06-04T11:16:17;101545.50;;;25.05;41.53
30967;BME280;17649;51.836;8.330;2023-06-04T11:19:17;101542.69;;;25.33;39.38
30967;BME280;17649;51.836;8.330;2023-06-04T11:22:17;101539.41;;;25.81;39.00
30967;BME280;17649;51.836;8.330;2023-06-04T11:25:18;101535.59;;;25.75;40.33
30967;BME280;17649;51.836;8.330;2023-06-04T11:28:18;101538.28;;;25.49;39.34
30967;BME280;17649;51.836;8.330;2023-06-04T11:31:19;101524.41;;;26.87;39.11
30967;BME280;17649;51.836;8.330;2023-06-04T11:34:23;101529.72;;;28.36;36.02
30967;BME280;17649;51.836;8.330;2023-06-04T11:37:23;101521.16;;;31.01;35.27
30967;BME280;17649;51.836;8.330;2023-06-04T11:40:24;101519.78;;;32.27;32.83
30967;BME280;17649;51.836;8.330;2023-06-04T11:43:25;101514.16;;;31.89;29.24
30967;BME280;17649;51.836;8.330;2023-06-04T11:46:25;101509.69;;;32.36;30.17
30967;BME280;17649;51.836;8.330;2023-06-04T11:49:26;101507.91;;;34.29;28.38
30967;BME280;17649;51.836;8.330;2023-06-04T11:52:27;101511.53;;;35.21;28.26
30967;BME280;17649;51.836;8.330;2023-06-04T11:55:27;101504.31;;;36.23;26.52
30967;BME280;17649;51.836;8.330;2023-06-04T11:58:28;101506.78;;;34.43;27.06
30967;BME280;17649;51.836;8.330;2023-06-04T12:01:28;101502.16;;;35.12;26.13
30967;BME280;17649;51.836;8.330;2023-06-04T12:04:30;101495.63;;;35.19;25.03
30967;BME280;17649;51.836;8.330;2023-06-04T12:07:31;101496.78;;;36.13;24.60
30967;BME280;17649;51.836;8.330;2023-06-04T12:10:36;101493.63;;;36.98;26.86
30967;BME280;17649;51.836;8.330;2023-06-04T12:13:37;101493.31;;;36.60;26.17
30967;BME280;17649;51.836;8.330;2023-06-04T12:16:37;101489.47;;;37.76;25.44
30967;BME280;17649;51.836;8.330;2023-06-04T12:19:47;101488.72;;;38.48;23.80
30967;BME280;17649;51.836;8.330;2023-06-04T12:22:50;101490.81;;;38.24;24.90
30967;BME280;17649;51.836;8.330;2023-06-04T12:25:52;101485.38;;;37.74;25.21
30967;BME280;17649;51.836;8.330;2023-06-04T12:29:00;101488.78;;;38.31;25.21
30967;BME280;17649;51.836;8.330;2023-06-04T12:35:05;101480.69;;;39.41;21.98
30967;BME280;17649;51.836;8.330;2023-06-04T12:38:05;101484.47;;;39.40;20.92
30967;BME280;17649;51.836;8.330;2023-06-04T12:41:09;101477.28;;;39.77;21.91
30967;BME280;17649;51.836;8.330;2023-06-04T12:44:09;101478.06;;;40.05;20.57
30967;BME280;17649;51.836;8.330;2023-06-04T12:47:09;101479.34;;;40.34;20.82
30967;BME280;17649;51.836;8.330;2023-06-04T12:50:10;101481.34;;;40.12;21.89
30967;BME280;17649;51.836;8.330;2023-06-04T12:53:10;101484.00;;;40.02;19.58
30967;BME280;17649;51.836;8.330;2023-06-04T12:56:10;101484.22;;;37.70;21.77
30967;BME280;17649;51.836;8.330;2023-06-04T12:59:11;101477.03;;;37.92;21.22
30967;BME280;17649;51.836;8.330;2023-06-04T13:02:11;101478.44;;;37.49;22.31
30967;BME280;17649;51.836;8.330;2023-06-04T13:05:12;101479.19;;;38.40;21.90
30967;BME280;17649;51.836;8.330;2023-06-04T13:08:13;101475.03;;;39.15;19.91
30967;BME280;17649;51.836;8.330;2023-06-04T13:11:13;101476.47;;;39.50;21.26
30967;BME280;17649;51.836;8.330;2023-06-04T13:14:13;101470.50;;;38.99;20.66
30967;BME280;17649;51.836;8.330;2023-06-04T13:17:13;101475.34;;;39.19;21.30
30967;BME280;17649;51.836;8.330;2023-06-04T13:20:14;101471.31;;;39.75;20.06
30967;BME280;17649;51.836;8.330;2023-06-04T13:23:14;101474.19;;;36.96;21.09
30967;BME280;17649;51.836;8.330;2023-06-04T13:26:15;101476.47;;;37.73;22.31
30967;BME280;17649;51.836;8.330;2023-06-04T13:29:15;101474.25;;;37.70;22.52
30967;BME280;17649;51.836;8.330;2023-06-04T13:32:16;101478.81;;;36.61;20.41
30967;BME280;17649;51.836;8.330;2023-06-04T13:35:16;101475.25;;;37.24;21.17
30967;BME280;17649;51.836;8.330;2023-06-04T13:38:20;101464.72;;;38.90;22.50
30967;BME280;17649;51.836;8.330;2023-06-04T13:41:20;101464.88;;;37.44;21.90
30967;BME280;17649;51.836;8.330;2023-06-04T13:44:21;101462.41;;;37.02;21.70
30967;BME280;17649;51.836;8.330;2023-06-04T13:47:25;101465.09;;;36.51;23.09
30967;BME280;17649;51.836;8.330;2023-06-04T13:50:26;101455.38;;;39.25;21.29
30967;BME280;17649;51.836;8.330;2023-06-04T13:53:27;101456.94;;;37.26;21.29
30967;BME280;17649;51.836;8.330;2023-06-04T13:56:28;101457.75;;;37.26;22.25
30967;BME280;17649;51.836;8.330;2023-06-04T13:59:28;101458.13;;;38.09;22.32
30967;BME280;17649;51.836;8.330;2023-06-04T14:02:31;101459.72;;;37.59;20.33
30967;BME280;17649;51.836;8.330;2023-06-04T14:05:31;101451.59;;;38.60;21.85
30967;BME280;17649;51.836;8.330;2023-06-04T14:08:34;101451.00;;;40.10;21.97
30967;BME280;17649;51.836;8.330;2023-06-04T14:11:35;101443.31;;;41.01;20.69
30967;BME280;17649;51.836;8.330;2023-06-04T14:14:35;101435.81;;;41.34;19.31
30967;BME280;17649;51.836;8.330;2023-06-04T14:17:39;101439.34;;;41.34;20.22
30967;BME280;17649;51.836;8.330;2023-06-04T14:20:39;101447.72;;;38.17;21.27
30967;BME280;17649;51.836;8.330;2023-06-04T14:23:40;101449.09;;;38.37;21.55
30967;BME280;17649;51.836;8.330;2023-06-04T14:26:40;101446.19;;;38.60;20.20
30967;BME280;17649;51.836;8.330;2023-06-04T14:29:40;101436.47;;;39.89;21.74
30967;BME280;17649;51.836;8.330;2023-06-04T14:32:41;101437.44;;;41.60;21.47
30967;BME280;17649;51.836;8.330;2023-06-04T14:35:42;101429.31;;;42.11;20.18
30967;BME280;17649;51.836;8.330;2023-06-04T14:38:46;101431.31;;;36.60;20.78
30967;BME280;17649;51.836;8.330;2023-06-04T14:41:47;101432.91;;;36.96;20.47
30967;BME280;17649;51.836;8.330;2023-06-04T14:44:49;101430.38;;;37.63;20.04
30967;BME280;17649;51.836;8.330;2023-06-04T14:47:49;101435.16;;;37.16;22.50
30967;BME280;17649;51.836;8.330;2023-06-04T14:50:51;101425.00;;;37.35;22.80
30967;BME280;17649;51.836;8.330;2023-06-04T14:53:55;101423.84;;;35.92;22.86
30967;BME280;17649;51.836;8.330;2023-06-04T14:56:55;101413.97;;;36.56;22.41
30967;BME280;17649;51.836;8.330;2023-06-04T14:59:56;101424.34;;;36.35;24.23
30967;BME280;17649;51.836;8.330;2023-06-04T15:02:56;101418.31;;;37.09;22.05
30967;BME280;17649;51.836;8.330;2023-06-04T15:05:56;101421.88;;;36.46;22.53
30967;BME280;17649;51.836;8.330;2023-06-04T15:08:57;101410.50;;;36.43;23.37
30967;BME280;17649;51.836;8.330;2023-06-04T15:11:58;101413.25;;;36.84;23.40
30967;BME280;17649;51.836;8.330;2023-06-04T15:14:58;101416.34;;;39.48;21.50
30967;BME280;17649;51.836;8.330;2023-06-04T15:17:59;101410.28;;;41.25;21.64
30967;BME280;17649;51.836;8.330;2023-06-04T15:20:59;101409.22;;;41.77;20.64
30967;BME280;17649;51.836;8.330;2023-06-04T15:24:01;101414.25;;;36.42;21.96
30967;BME280;17649;51.836;8.330;2023-06-04T15:27:01;101402.03;;;36.28;23.67
30967;BME280;17649;51.836;8.330;2023-06-04T15:30:02;101405.06;;;36.67;22.08
30967;BME280;17649;51.836;8.330;2023-06-04T15:33:02;101414.56;;;37.10;22.92
30967;BME280;17649;51.836;8.330;2023-06-04T15:36:02;101408.69;;;39.72;20.00
30967;BME280;17649;51.836;8.330;2023-06-04T15:39:03;101400.66;;;40.19;20.30
30967;BME280;17649;51.836;8.330;2023-06-04T15:42:04;101403.75;;;39.31;21.79
30967;BME280;17649;51.836;8.330;2023-06-04T15:45:05;101404.41;;;40.75;21.11
30967;BME280;17649;51.836;8.330;2023-06-04T15:48:05;101402.53;;;42.39;20.63
30967;BME280;17649;51.836;8.330;2023-06-04T15:51:05;101402.53;;;43.03;19.13
30967;BME280;17649;51.836;8.330;2023-06-04T15:54:05;101388.19;;;42.93;18.41